createdAt,value
2019-05-21T00:01:46.582Z,92.30
2019-05-21T00:04:27.844Z,92.87
2019-05-21T00:06:48.982Z,92.45
2019-05-21T00:09:19.639Z,93.22
2019-05-21T00:11:49.964Z,91.64
2019-05-21T00:14:20.310Z,92.46
2019-05-21T00:16:51.023Z,91.17
2019-05-21T00:19:21.615Z,90.51
2019-05-21T00:21:51.926Z,90.79
2019-05-21T00:24:22.720Z,90.50
2019-05-21T00:26:53.414Z,89.91
2019-05-21T00:29:59.562Z,88.78
2019-05-21T00:33:05.783Z,91.28
2019-05-21T00:36:12.030Z,91.56
2019-05-21T00:39:19.992Z,90.34
2019-05-21T00:42:02.632Z,92.09
2019-05-21T00:44:39.684Z,93.20
2019-05-21T00:47:11.725Z,93.89
2019-05-21T00:49:42.442Z,93.72
2019-05-21T00:52:12.774Z,93.17
2019-05-21T00:54:43.383Z,92.70
2019-05-21T00:57:13.764Z,92.41
2019-05-21T00:59:44.060Z,94.73
2019-05-21T01:02:14.503Z,95.24
2019-05-21T01:04:59.556Z,96.23
2019-05-21T01:07:17.279Z,95.16
2019-05-21T01:09:47.985Z,95.89
2019-05-21T01:12:18.432Z,95.08
2019-05-21T01:14:49.052Z,93.77
2019-05-21T01:17:19.789Z,93.57
2019-05-21T01:19:50.189Z,93.93
2019-05-21T01:22:20.782Z,91.50
2019-05-21T01:24:51.460Z,91.01
2019-05-21T01:27:22.865Z,91.34
2019-05-21T01:29:53.180Z,90.16
2019-05-21T01:32:23.918Z,92.55
2019-05-21T01:34:54.214Z,91.06
2019-05-21T01:37:24.558Z,89.54
2019-05-21T01:39:55.228Z,87.88
2019-05-21T01:42:25.706Z,90.06
2019-05-21T01:44:56.198Z,89.08
2019-05-21T01:47:26.559Z,88.83
2019-05-21T01:49:56.885Z,88.57
2019-05-21T01:52:27.588Z,89.98
2019-05-21T01:54:57.995Z,87.69
2019-05-21T01:57:28.280Z,87.21
2019-05-21T01:59:59.002Z,91.92
2019-05-21T02:02:29.577Z,90.48
2019-05-21T02:04:59.870Z,89.08
2019-05-21T02:07:30.619Z,88.91
2019-05-21T02:10:01.547Z,86.74
2019-05-21T02:12:32.050Z,87.22
2019-05-21T02:15:02.383Z,89.09
2019-05-21T02:17:32.720Z,87.12
2019-05-21T02:20:03.518Z,88.57
2019-05-21T02:22:34.098Z,88.71
2019-05-21T02:25:04.971Z,88.55
2019-05-21T02:27:35.682Z,88.25
2019-05-21T02:30:09.491Z,89.75
2019-05-21T02:32:39.876Z,89.18
2019-05-21T02:35:11.152Z,88.85
2019-05-21T02:37:41.748Z,88.38
2019-05-21T02:40:12.948Z,88.08
2019-05-21T02:42:43.393Z,90.84
2019-05-21T02:45:14.177Z,89.74
2019-05-21T02:47:44.892Z,89.54
2019-05-21T02:50:15.942Z,89.13
2019-05-21T02:52:46.267Z,87.18
2019-05-21T02:55:17.211Z,88.72
2019-05-21T02:57:48.718Z,88.52
2019-05-21T03:00:50.484Z,87.98
2019-05-21T03:03:23.976Z,89.06
2019-05-21T03:06:12.306Z,89.00
2019-05-21T03:08:26.703Z,88.48
2019-05-21T03:10:57.028Z,87.54
2019-05-21T03:13:27.860Z,87.71
2019-05-21T03:15:58.160Z,88.38
2019-05-21T03:18:28.495Z,87.52
2019-05-21T03:20:59.115Z,88.32
2019-05-21T03:23:29.588Z,88.38
2019-05-21T03:25:59.927Z,88.14
2019-05-21T03:28:30.298Z,88.09
2019-05-21T03:31:00.773Z,88.22
2019-05-21T03:33:31.045Z,87.97
2019-05-21T03:36:01.902Z,88.16
2019-05-21T03:38:32.638Z,87.76
2019-05-21T03:41:02.938Z,87.58
2019-05-21T03:43:33.382Z,87.68
2019-05-21T03:46:04.182Z,89.14
2019-05-21T03:48:34.537Z,89.49
2019-05-21T03:51:05.453Z,90.45
2019-05-21T03:53:35.785Z,89.50
2019-05-21T03:56:06.666Z,88.81
2019-05-21T03:58:37.123Z,89.27
2019-05-21T04:01:07.411Z,89.33
2019-05-21T04:03:38.022Z,89.30
2019-05-21T04:06:08.776Z,89.42
2019-05-21T04:08:39.118Z,88.86
2019-05-21T04:11:09.448Z,88.50
2019-05-21T04:13:40.218Z,88.94
2019-05-21T04:16:38.217Z,88.77
2019-05-21T04:19:12.219Z,88.63
2019-05-21T04:21:43.025Z,89.17
2019-05-21T04:24:13.396Z,88.61
2019-05-21T04:26:43.818Z,88.52
2019-05-21T04:29:14.123Z,88.37
2019-05-21T04:31:44.584Z,88.05
2019-05-21T04:34:15.261Z,87.41
2019-05-21T04:36:45.616Z,87.35
2019-05-21T04:39:16.019Z,87.14
2019-05-21T04:41:46.727Z,86.00
2019-05-21T04:44:17.310Z,85.26
2019-05-21T04:46:47.834Z,84.73
2019-05-21T04:49:18.533Z,84.21
2019-05-21T04:51:49.286Z,83.66
2019-05-21T04:54:19.672Z,82.09
2019-05-21T04:56:50.031Z,81.30
2019-05-21T04:59:20.332Z,80.36
2019-05-21T05:01:51.003Z,80.63
2019-05-21T05:04:22.308Z,79.82
2019-05-21T05:06:53.000Z,78.82
2019-05-21T05:09:23.675Z,78.41
2019-05-21T05:11:54.238Z,78.14
2019-05-21T05:14:24.539Z,77.27
2019-05-21T05:16:55.366Z,76.18
2019-05-21T05:19:26.079Z,75.64
2019-05-21T05:21:56.423Z,74.29
2019-05-21T05:24:26.829Z,74.19
2019-05-21T05:26:57.152Z,73.22
2019-05-21T05:29:27.913Z,71.51
2019-05-21T05:31:58.592Z,69.22
2019-05-21T05:34:28.929Z,69.74
2019-05-21T05:36:59.669Z,69.85
2019-05-21T05:39:30.187Z,70.46
2019-05-21T05:42:00.537Z,70.32
2019-05-21T05:44:31.153Z,69.68
2019-05-21T05:47:01.791Z,69.27
2019-05-21T05:49:37.324Z,68.59
2019-05-21T05:52:07.703Z,67.73
2019-05-21T05:54:39.064Z,67.20
2019-05-21T05:57:09.412Z,65.71
2019-05-21T05:59:40.264Z,65.76
2019-05-21T06:02:10.676Z,65.57
2019-05-21T06:04:41.110Z,64.83
2019-05-21T06:07:11.803Z,64.55
2019-05-21T06:09:42.153Z,64.76
2019-05-21T06:12:12.732Z,64.10
2019-05-21T06:14:43.398Z,63.63
2019-05-21T06:17:13.862Z,62.69
2019-05-21T06:19:44.174Z,62.33
2019-05-21T06:22:14.771Z,61.70
2019-05-21T06:24:45.415Z,59.15
2019-05-21T06:27:15.854Z,58.29
2019-05-21T06:29:46.544Z,57.78
2019-05-21T06:32:16.884Z,54.22
2019-05-21T06:34:48.768Z,52.91
2019-05-21T06:37:19.274Z,52.28
2019-05-21T06:39:49.579Z,50.23
2019-05-21T06:42:20.279Z,51.00
2019-05-21T06:44:50.842Z,50.59
2019-05-21T06:47:21.199Z,50.56
2019-05-21T06:49:51.828Z,48.13
2019-05-21T06:52:22.278Z,49.49
2019-05-21T06:54:52.581Z,51.27
2019-05-21T06:57:23.162Z,52.25
2019-05-21T06:59:53.878Z,52.30
2019-05-21T07:02:24.256Z,50.49
2019-05-21T07:04:54.774Z,49.83
2019-05-21T07:07:25.303Z,50.21
2019-05-21T07:09:56.069Z,48.74
2019-05-21T07:12:28.441Z,47.59
2019-05-21T07:14:58.791Z,47.01
2019-05-21T07:17:29.348Z,44.96
2019-05-21T07:20:00.136Z,44.09
2019-05-21T07:22:30.492Z,43.76
2019-05-21T07:25:01.283Z,45.23
2019-05-21T07:27:33.097Z,42.66
2019-05-21T07:30:03.419Z,43.50
2019-05-21T07:32:34.898Z,42.46
2019-05-21T07:35:06.178Z,42.46
2019-05-21T07:37:36.532Z,40.63
2019-05-21T07:40:07.790Z,42.67
2019-05-21T07:42:38.447Z,42.94
2019-05-21T07:45:09.689Z,43.83
2019-05-21T07:47:40.087Z,43.22
2019-05-21T07:50:10.791Z,43.22
2019-05-21T07:52:41.168Z,41.07
2019-05-21T07:55:11.807Z,41.07
2019-05-21T07:57:42.418Z,40.43
2019-05-21T08:00:13.410Z,40.08
2019-05-21T08:02:43.703Z,42.04
2019-05-21T08:05:14.359Z,40.14
2019-05-21T08:07:44.665Z,40.82
2019-05-21T08:10:15.606Z,38.65
2019-05-21T08:12:46.316Z,39.52
2019-05-21T08:15:16.830Z,39.00
2019-05-21T08:17:47.574Z,39.00
2019-05-21T08:20:18.572Z,40.34
2019-05-21T08:22:48.875Z,40.38
2019-05-21T08:25:19.256Z,41.05
2019-05-21T08:27:49.781Z,38.49
2019-05-21T08:30:20.433Z,38.14
2019-05-21T08:32:50.809Z,39.27
2019-05-21T08:35:21.622Z,38.87
2019-05-21T08:37:51.924Z,38.14
2019-05-21T08:40:22.655Z,37.76
2019-05-21T08:42:52.964Z,36.35
2019-05-21T08:45:23.748Z,37.21
2019-05-21T08:47:54.456Z,37.28
2019-05-21T08:50:24.786Z,37.26
2019-05-21T08:52:55.082Z,37.00
2019-05-21T08:55:25.525Z,36.24
2019-05-21T09:00:28.303Z,36.48
2019-05-21T09:02:59.302Z,35.86
2019-05-21T09:03:13.779Z,36.36
2019-05-21T09:05:29.819Z,36.37
2019-05-21T09:08:00.216Z,36.33
2019-05-21T09:10:30.956Z,37.04
2019-05-21T09:13:01.266Z,35.58
2019-05-21T09:15:31.971Z,36.30
2019-05-21T09:18:02.309Z,37.27
2019-05-21T09:20:32.964Z,37.65
2019-05-21T09:23:03.490Z,36.75
2019-05-21T09:25:34.204Z,35.74
2019-05-21T09:28:04.564Z,34.97
2019-05-21T09:30:35.345Z,34.56
2019-05-21T09:33:05.973Z,34.19
2019-05-21T09:35:36.347Z,35.50
2019-05-21T09:38:06.890Z,36.26
2019-05-21T09:40:37.837Z,35.98
2019-05-21T09:43:08.326Z,37.30
2019-05-21T09:45:39.104Z,36.86
2019-05-21T09:48:09.597Z,35.85
2019-05-21T09:50:40.252Z,35.30
2019-05-21T09:53:10.646Z,34.75
2019-05-21T09:55:41.008Z,33.17
2019-05-21T09:58:28.869Z,31.37
2019-05-21T10:01:18.500Z,31.23
2019-05-21T10:03:52.354Z,30.60
2019-05-21T10:06:22.922Z,30.25
2019-05-21T10:08:53.544Z,30.15
2019-05-21T10:11:23.900Z,28.76
2019-05-21T10:13:54.311Z,27.02
2019-05-21T10:16:24.874Z,28.67
2019-05-21T10:18:55.605Z,28.48
2019-05-21T10:21:26.209Z,29.77
2019-05-21T10:23:56.495Z,27.91
2019-05-21T10:26:27.085Z,27.64
2019-05-21T10:28:57.891Z,28.18
2019-05-21T10:31:28.173Z,29.26
2019-05-21T10:33:58.551Z,27.96
2019-05-21T10:36:28.988Z,28.60
2019-05-21T10:38:59.297Z,27.84
2019-05-21T10:41:29.636Z,28.57
2019-05-21T10:44:00.263Z,29.03
2019-05-21T10:46:30.783Z,29.45
2019-05-21T10:49:01.585Z,28.49
2019-05-21T10:51:31.870Z,27.44
2019-05-21T10:54:02.338Z,27.23
2019-05-21T10:56:46.786Z,27.76
2019-05-21T10:59:05.289Z,28.57
2019-05-21T11:01:57.679Z,27.41
2019-05-21T11:04:47.310Z,28.22
2019-05-21T11:07:19.214Z,29.40
2019-05-21T11:09:49.574Z,27.66
2019-05-21T11:12:20.308Z,27.62
2019-05-21T11:14:50.997Z,28.57
2019-05-21T11:17:21.568Z,28.42
2019-05-21T11:19:52.007Z,28.04
2019-05-21T11:22:22.387Z,26.71
2019-05-21T11:24:52.948Z,26.88
2019-05-21T11:27:23.874Z,25.82
2019-05-21T11:29:54.213Z,25.71
2019-05-21T11:32:25.017Z,26.74
2019-05-21T11:34:55.998Z,28.08
2019-05-21T11:37:26.318Z,27.78
2019-05-21T11:39:57.145Z,27.90
2019-05-21T11:42:27.739Z,33.27
2019-05-21T11:44:58.085Z,38.54
2019-05-21T11:47:28.594Z,39.45
2019-05-21T11:49:59.162Z,39.30
2019-05-21T11:52:29.460Z,40.70
2019-05-21T11:54:59.877Z,42.57
2019-05-21T11:57:30.261Z,43.03
2019-05-21T12:00:00.602Z,42.51
2019-05-21T12:02:30.912Z,42.46
2019-05-21T12:05:01.656Z,45.64
2019-05-21T12:07:32.035Z,46.20
2019-05-21T12:10:02.376Z,46.87
2019-05-21T12:12:33.073Z,47.63
2019-05-21T12:15:03.893Z,47.63
2019-05-21T12:17:34.182Z,47.36
2019-05-21T12:20:05.467Z,46.51
2019-05-21T12:22:35.874Z,44.99
2019-05-21T12:25:06.900Z,45.42
2019-05-21T12:27:37.283Z,45.27
2019-05-21T12:30:08.337Z,43.88
2019-05-21T12:32:40.250Z,43.03
2019-05-21T12:35:11.359Z,43.36
2019-05-21T12:37:41.763Z,41.63
2019-05-21T12:40:13.316Z,40.86
2019-05-21T12:42:44.079Z,40.71
2019-05-21T12:45:14.689Z,40.86
2019-05-21T12:47:45.071Z,42.12
2019-05-21T12:50:16.040Z,41.18
2019-05-21T12:52:46.327Z,42.18
2019-05-21T12:55:16.976Z,40.92
2019-05-21T12:57:47.507Z,38.91
2019-05-21T13:00:19.436Z,39.86
2019-05-21T13:02:50.010Z,38.74
2019-05-21T13:05:20.352Z,37.34
2019-05-21T13:07:51.922Z,35.12
2019-05-21T13:10:22.759Z,35.28
2019-05-21T13:12:53.077Z,32.82
2019-05-21T13:15:23.495Z,31.29
2019-05-21T13:17:54.076Z,32.44
2019-05-21T13:20:24.521Z,32.70
2019-05-21T13:22:54.901Z,36.08
2019-05-21T13:25:25.953Z,38.81
2019-05-21T13:27:57.690Z,40.26
2019-05-21T13:30:28.833Z,40.03
2019-05-21T13:32:59.079Z,42.87
2019-05-21T13:35:29.570Z,41.66
2019-05-21T13:38:00.472Z,40.05
2019-05-21T13:40:32.550Z,40.75
2019-05-21T13:43:02.946Z,40.00
2019-05-21T13:45:34.507Z,37.71
2019-05-21T13:48:05.055Z,36.64
2019-05-21T13:50:35.338Z,36.42
2019-05-21T13:53:06.189Z,37.29
2019-05-21T13:55:36.840Z,37.62
2019-05-21T13:58:07.377Z,37.02
2019-05-21T14:00:42.434Z,38.03
2019-05-21T14:03:13.285Z,41.41
2019-05-21T14:05:44.160Z,49.68
2019-05-21T14:08:14.752Z,46.78
2019-05-21T14:10:45.159Z,45.84
2019-05-21T14:13:15.882Z,49.07
2019-05-21T14:15:47.252Z,49.09
2019-05-21T14:18:17.588Z,45.20
2019-05-21T14:20:47.989Z,42.75
2019-05-21T14:23:18.782Z,43.93
2019-05-21T14:25:49.082Z,43.76
2019-05-21T14:28:20.000Z,42.11
2019-05-21T14:30:50.800Z,42.50
2019-05-21T14:33:21.183Z,37.83
2019-05-21T14:35:51.732Z,37.20
2019-05-21T14:38:22.036Z,38.27
2019-05-21T14:40:52.835Z,35.20
2019-05-21T14:43:23.572Z,33.64
2019-05-21T14:45:53.962Z,32.47
2019-05-21T14:48:24.445Z,31.00
2019-05-21T14:50:54.863Z,31.68
2019-05-21T14:53:25.158Z,30.19
2019-05-21T14:55:55.485Z,29.80
2019-05-21T14:58:26.131Z,28.92
2019-05-21T15:00:56.477Z,28.78
2019-05-21T15:03:29.508Z,28.60
2019-05-21T15:05:59.267Z,28.37
2019-05-21T15:08:29.678Z,27.06
2019-05-21T15:11:01.354Z,27.16
2019-05-21T15:13:31.646Z,26.26
2019-05-21T15:16:01.981Z,25.27
2019-05-21T15:18:32.434Z,24.50
2019-05-21T15:21:10.954Z,21.85
2019-05-21T15:23:42.032Z,24.59
2019-05-21T15:26:13.411Z,25.60
2019-05-21T15:28:44.822Z,29.17
2019-05-21T15:31:15.249Z,29.98
2019-05-21T15:33:45.979Z,31.39
2019-05-21T15:36:16.460Z,32.37
2019-05-21T15:38:50.502Z,33.61
2019-05-21T15:41:18.988Z,35.00
2019-05-21T15:43:49.336Z,35.77
2019-05-21T15:46:20.130Z,36.56
2019-05-21T15:48:50.810Z,45.21
2019-05-21T15:51:21.296Z,41.72
2019-05-21T15:53:51.939Z,42.07
2019-05-21T15:56:22.828Z,44.13
2019-05-21T15:58:54.094Z,44.49
2019-05-21T16:01:24.844Z,46.01
2019-05-21T16:03:55.767Z,45.00
2019-05-21T16:06:26.160Z,45.00
2019-05-21T16:08:57.844Z,46.33
2019-05-21T16:11:29.366Z,46.33
2019-05-21T16:13:59.802Z,46.42
2019-05-21T16:16:30.111Z,46.42
2019-05-21T16:19:00.558Z,46.51
2019-05-21T16:21:30.867Z,45.74
2019-05-21T16:24:01.432Z,45.62
2019-05-21T16:26:32.076Z,44.94
2019-05-21T16:29:02.608Z,44.65
2019-05-21T16:31:32.940Z,44.62
2019-05-21T16:34:03.739Z,43.66
2019-05-21T16:36:34.506Z,43.43
2019-05-21T16:39:07.366Z,42.44
2019-05-21T16:41:44.640Z,41.99
2019-05-21T16:44:10.170Z,42.02
2019-05-21T16:46:42.535Z,41.49
2019-05-21T16:49:12.772Z,42.48
2019-05-21T16:51:43.654Z,42.96
2019-05-21T16:54:14.742Z,42.64
2019-05-21T16:56:45.409Z,40.82
2019-05-21T16:59:15.832Z,39.89
2019-05-21T17:01:46.384Z,39.34
2019-05-21T17:04:16.953Z,39.35
2019-05-21T17:06:47.271Z,39.89
2019-05-21T17:09:17.775Z,40.25
2019-05-21T17:11:59.591Z,40.50
2019-05-21T17:14:20.546Z,41.56
2019-05-21T17:16:50.985Z,41.29
2019-05-21T17:19:21.320Z,41.07
2019-05-21T17:21:52.037Z,40.38
2019-05-21T17:24:22.699Z,40.78
2019-05-21T17:26:53.091Z,40.95
2019-05-21T17:29:23.883Z,42.53
2019-05-21T17:31:54.672Z,43.50
2019-05-21T17:34:25.293Z,44.22
2019-05-21T17:36:55.608Z,46.16
2019-05-21T17:39:26.502Z,47.28
2019-05-21T17:41:56.789Z,47.06
2019-05-21T17:44:27.252Z,48.23
2019-05-21T17:46:58.052Z,48.23
2019-05-21T17:49:28.591Z,48.83
2019-05-21T17:51:59.429Z,49.41
2019-05-21T17:54:29.925Z,50.48
2019-05-21T17:57:00.275Z,50.81
2019-05-21T17:59:32.208Z,50.81
2019-05-21T18:02:04.439Z,52.50
2019-05-21T18:04:34.768Z,53.18
2019-05-21T18:07:07.900Z,53.10
2019-05-21T18:09:38.611Z,52.89
2019-05-21T18:12:10.954Z,53.93
2019-05-21T18:14:42.196Z,54.41
2019-05-21T18:17:16.190Z,55.33
2019-05-21T18:19:49.239Z,56.50
2019-05-21T18:22:22.104Z,57.29
2019-05-21T18:24:53.379Z,57.44
2019-05-21T18:27:24.230Z,56.94
2019-05-21T18:29:56.726Z,57.74
2019-05-21T18:32:27.698Z,56.92
2019-05-21T18:34:58.094Z,57.74
2019-05-21T18:37:28.771Z,56.95
2019-05-21T18:39:59.687Z,56.59
2019-05-21T18:42:30.274Z,56.87
2019-05-21T18:45:00.675Z,57.41
2019-05-21T18:47:31.369Z,57.72
2019-05-21T18:50:01.853Z,58.60
2019-05-21T18:52:32.791Z,58.87
2019-05-21T18:55:03.132Z,58.45
2019-05-21T18:57:33.582Z,58.04
2019-05-21T19:00:04.271Z,57.74
2019-05-21T19:02:34.843Z,57.12
2019-05-21T19:05:05.818Z,57.05
2019-05-21T19:07:37.088Z,56.71
2019-05-21T19:10:07.837Z,55.75
2019-05-21T19:12:40.064Z,55.52
2019-05-21T19:15:11.678Z,55.57
2019-05-21T19:17:42.080Z,54.94
2019-05-21T19:20:13.784Z,54.91
2019-05-21T19:22:44.678Z,54.66
2019-05-21T19:25:16.414Z,54.25
2019-05-21T19:27:47.182Z,54.64
2019-05-21T19:30:17.778Z,54.67
2019-05-21T19:32:48.345Z,54.46
2019-05-21T19:35:19.094Z,54.63
2019-05-21T19:37:49.629Z,54.93
2019-05-21T19:40:20.163Z,53.86
2019-05-21T19:42:54.957Z,54.25
2019-05-21T19:45:22.848Z,53.97
2019-05-21T19:47:53.226Z,54.79
2019-05-21T19:50:24.966Z,55.55
2019-05-21T19:52:55.575Z,56.32
2019-05-21T19:55:27.482Z,56.00
2019-05-21T19:57:58.084Z,56.24
2019-05-21T20:00:30.799Z,56.50
2019-05-21T20:03:01.733Z,56.12
2019-05-21T20:05:33.286Z,56.90
2019-05-21T20:08:04.256Z,57.66
2019-05-21T20:10:35.033Z,58.23
2019-05-21T20:13:05.705Z,57.46
2019-05-21T20:15:36.318Z,57.60
2019-05-21T20:18:07.828Z,57.83
2019-05-21T20:20:39.052Z,57.82
2019-05-21T20:23:10.695Z,57.95
2019-05-21T20:25:55.514Z,57.28
2019-05-21T20:28:14.743Z,57.16
2019-05-21T20:30:45.446Z,57.47
2019-05-21T20:33:17.192Z,57.47
2019-05-21T20:35:48.615Z,57.49
2019-05-21T20:38:19.685Z,57.46
2019-05-21T20:40:50.026Z,56.97
2019-05-21T20:43:21.173Z,56.86
2019-05-21T20:45:51.861Z,56.21
2019-05-21T20:48:26.350Z,56.49
2019-05-21T20:50:56.958Z,55.78
2019-05-21T20:53:27.750Z,55.58
2019-05-21T20:55:58.097Z,54.44
2019-05-21T20:58:28.996Z,54.11
2019-05-21T21:01:02.377Z,54.52
2019-05-21T21:03:33.709Z,54.63
2019-05-21T21:06:05.063Z,55.23
2019-05-21T21:08:36.624Z,55.39
2019-05-21T21:11:09.117Z,56.36
2019-05-21T21:13:40.587Z,55.72
2019-05-21T21:16:11.437Z,56.02
2019-05-21T21:18:41.916Z,55.93
2019-05-21T21:21:12.871Z,54.77
2019-05-21T21:23:43.522Z,57.95
2019-05-21T21:26:15.004Z,58.50
2019-05-21T21:28:47.096Z,57.11
2019-05-21T21:31:17.420Z,56.76
2019-05-21T21:33:48.438Z,56.84
2019-05-21T21:36:18.875Z,57.01
2019-05-21T21:38:49.493Z,57.63
2019-05-21T21:41:21.358Z,60.40
2019-05-21T21:43:51.598Z,59.22
2019-05-21T21:46:21.925Z,60.51
2019-05-21T21:48:52.475Z,62.25
2019-05-21T21:51:23.193Z,62.25
2019-05-21T21:53:54.163Z,61.39
2019-05-21T21:56:24.974Z,61.58
2019-05-21T21:58:55.437Z,61.38
2019-05-21T22:01:43.479Z,62.55
2019-05-21T22:04:18.375Z,62.62
2019-05-21T22:06:50.988Z,64.70
2019-05-21T22:09:34.850Z,65.38
2019-05-21T22:12:06.490Z,66.15
2019-05-21T22:14:49.599Z,66.06
2019-05-21T22:17:11.911Z,66.04
2019-05-21T22:19:42.275Z,66.42
2019-05-21T22:22:13.421Z,67.17
2019-05-21T22:24:43.745Z,68.02
2019-05-21T22:27:14.066Z,67.31
2019-05-21T22:29:45.633Z,67.51
2019-05-21T22:32:16.978Z,68.31
2019-05-21T22:34:47.285Z,69.00
2019-05-21T22:37:22.333Z,69.57
2019-05-21T22:39:53.432Z,69.22
2019-05-21T22:42:24.948Z,69.91
2019-05-21T22:45:07.533Z,70.21
2019-05-21T22:47:27.834Z,70.31
2019-05-21T22:49:58.129Z,70.42
2019-05-21T22:52:28.720Z,70.25
2019-05-21T22:54:59.375Z,70.55
2019-05-21T22:57:29.722Z,70.57
2019-05-21T23:00:00.066Z,70.82
2019-05-21T23:02:33.722Z,71.27
2019-05-21T23:05:04.237Z,71.33
2019-05-21T23:07:34.813Z,71.20
2019-05-21T23:10:06.323Z,71.28
2019-05-21T23:12:37.070Z,71.29
2019-05-21T23:15:23.716Z,71.81
2019-05-21T23:17:42.980Z,71.93
2019-05-21T23:20:33.978Z,72.00
2019-05-21T23:23:06.103Z,71.03
2019-05-21T23:25:38.687Z,71.39
2019-05-21T23:28:10.118Z,71.64
2019-05-21T23:30:40.919Z,72.01
2019-05-21T23:33:13.148Z,71.62
2019-05-21T23:35:43.811Z,71.77
2019-05-21T23:38:16.640Z,72.28
2019-05-21T23:40:48.630Z,72.34
2019-05-21T23:43:19.530Z,72.34
2019-05-21T23:45:49.825Z,72.33
2019-05-21T23:48:20.942Z,72.51
2019-05-21T23:50:51.707Z,72.33
2019-05-21T23:53:22.448Z,72.76
2019-05-21T23:55:52.761Z,72.19
2019-05-21T23:58:23.943Z,71.70
